Time;durP1;ratioP1;P1;durP2;ratioP2;P2;SDS_P1;SDS_P2;PMS_P1;PMS_P2;Temp;Humidity;BMP_temperature;BMP_pressure;BME280_temperature;BME280_humidity;BME280_pressure;Samples;Min_cycle;Max_cycle;Signal;HPM_P1;HPM_P2
2022/05/14 00:01:45;;;;;;;;;;;11.90;99.90;;;;;;4961075;28;19925;-73
2022/05/14 00:04:10;;;;;;;;;;;11.80;99.90;;;;;;4944385;28;19988;-73
2022/05/14 00:06:36;;;;;;;;;;;11.90;99.90;;;;;;4958981;28;19925;-73
2022/05/14 00:09:05;;;;;;;;;;;11.90;99.90;;;;;;4959790;28;19926;-74
2022/05/14 00:14:16;;;;;;;;;;;12.00;99.90;;;;;;4957610;28;19961;-73
2022/05/14 00:16:41;;;;;;;;;;;12.00;99.90;;;;;;4957000;28;19929;-75
2022/05/14 00:19:08;;;;;;;;;;;12.00;99.90;;;;;;4942198;28;19932;-74
2022/05/14 00:21:35;;;;;;;;;;;12.10;99.90;;;;;;4938841;28;19948;-74
2022/05/14 00:24:02;;;;;;;;;;;12.10;99.90;;;;;;4955437;28;19925;-74
2022/05/14 00:26:27;;;;;;;;;;;12.10;99.90;;;;;;4958207;28;19925;-75
2022/05/14 00:28:53;;;;;;;;;;;12.10;99.90;;;;;;4940199;28;20046;-73
2022/05/14 00:31:19;;;;;;;;;;;12.10;99.90;;;;;;4959733;28;19926;-74
2022/05/14 00:33:46;;;;;;;;;;;12.10;99.90;;;;;;4955692;28;19957;-73
2022/05/14 00:36:14;;;;;;;;;;;12.10;99.90;;;;;;4942081;28;21630;-74
2022/05/14 00:38:40;;;;;;;;;;;12.10;99.90;;;;;;4941026;28;20810;-74
2022/05/14 00:41:07;;;;;;;;;;;12.10;99.90;;;;;;4959791;28;20012;-73
2022/05/14 00:43:34;;;;;;;;;;;12.10;99.90;;;;;;4960572;28;20411;-74
2022/05/14 00:46:09;;;;;;;;;;;12.10;99.90;;;;;;4959212;28;19940;-74
2022/05/14 00:48:36;;;;;;;;;;;12.10;99.90;;;;;;4938812;28;19926;-73
2022/05/14 00:51:02;;;;;;;;;;;12.10;99.90;;;;;;4939931;28;19926;-73
2022/05/14 00:53:34;;;;;;;;;;;12.00;99.90;;;;;;4955245;28;19929;-73
2022/05/14 00:56:03;;;;;;;;;;;12.00;99.90;;;;;;4958475;28;20379;-73
2022/05/14 00:58:48;;;;;;;;;;;12.00;99.90;;;;;;4959532;28;20005;-74
2022/05/14 01:01:14;;;;;;;;;;;12.00;99.90;;;;;;4940752;28;19925;-73
2022/05/14 01:03:40;;;;;;;;;;;12.00;99.90;;;;;;4960489;28;19937;-74
2022/05/14 01:06:08;;;;;;;;;;;12.00;99.90;;;;;;4959587;28;19930;-73
2022/05/14 01:08:34;;;;;;;;;;;12.00;99.90;;;;;;4939583;28;19926;-73
2022/05/14 01:11:00;;;;;;;;;;;11.90;99.90;;;;;;4957509;28;20550;-73
2022/05/14 01:13:26;;;;;;;;;;;11.90;99.90;;;;;;4961976;28;19973;-74
2022/05/14 01:15:54;;;;;;;;;;;11.90;99.90;;;;;;4933271;28;19929;-73
2022/05/14 01:18:22;;;;;;;;;;;11.90;99.90;;;;;;4919271;28;19989;-74
2022/05/14 01:20:59;;;;;;;;;;;11.90;99.90;;;;;;4940335;28;19926;-73
2022/05/14 01:23:30;;;;;;;;;;;12.00;99.90;;;;;;4941557;28;20036;-73
2022/05/14 01:28:42;;;;;;;;;;;12.00;99.90;;;;;;4938761;28;19922;-73
2022/05/14 01:31:08;;;;;;;;;;;12.00;99.90;;;;;;4941905;28;20709;-73
2022/05/14 01:33:34;;;;;;;;;;;12.00;99.90;;;;;;4939556;28;19930;-73
2022/05/14 01:36:00;;;;;;;;;;;12.00;99.90;;;;;;4941566;28;20707;-73
2022/05/14 01:38:25;;;;;;;;;;;12.10;99.90;;;;;;4939947;28;19932;-73
2022/05/14 01:40:52;;;;;;;;;;;12.10;99.90;;;;;;4940419;28;20451;-73
2022/05/14 01:43:17;;;;;;;;;;;12.10;99.90;;;;;;4920848;28;19974;-73
2022/05/14 01:45:44;;;;;;;;;;;12.10;99.90;;;;;;4937689;28;19930;-74
2022/05/14 01:48:10;;;;;;;;;;;12.10;99.90;;;;;;4941447;28;20126;-74
2022/05/14 01:50:36;;;;;;;;;;;12.10;99.90;;;;;;4938447;28;19925;-73
2022/05/14 01:53:02;;;;;;;;;;;12.10;99.90;;;;;;4919733;28;20050;-73
2022/05/14 01:55:27;;;;;;;;;;;12.10;99.90;;;;;;4946871;28;19929;-73
2022/05/14 01:57:53;;;;;;;;;;;12.10;99.90;;;;;;4941783;28;19923;-73
2022/05/14 02:00:21;;;;;;;;;;;12.10;99.90;;;;;;4905226;28;19948;-73
2022/05/14 02:02:47;;;;;;;;;;;12.10;99.90;;;;;;4937855;28;20414;-73
2022/05/14 02:05:13;;;;;;;;;;;12.10;99.90;;;;;;4938290;28;19956;-73
2022/05/14 02:07:39;;;;;;;;;;;12.10;99.90;;;;;;4939086;28;19926;-73
2022/05/14 02:10:05;;;;;;;;;;;12.10;99.90;;;;;;4922712;28;19961;-73
2022/05/14 02:12:31;;;;;;;;;;;12.10;99.90;;;;;;4904550;28;19933;-73
2022/05/14 02:14:56;;;;;;;;;;;12.10;99.90;;;;;;4937214;28;19937;-74
2022/05/14 02:17:22;;;;;;;;;;;12.10;99.90;;;;;;4946788;28;19932;-74
2022/05/14 02:19:49;;;;;;;;;;;12.20;99.90;;;;;;4952563;28;19992;-74
2022/05/14 02:22:15;;;;;;;;;;;12.10;99.90;;;;;;4957043;28;19980;-73
2022/05/14 02:24:41;;;;;;;;;;;12.10;99.90;;;;;;4950883;28;20262;-74
2022/05/14 02:27:07;;;;;;;;;;;12.10;99.90;;;;;;4954621;28;19926;-74
2022/05/14 02:29:50;;;;;;;;;;;12.10;99.90;;;;;;4953122;28;19965;-74
2022/05/14 02:32:19;;;;;;;;;;;12.00;99.90;;;;;;4946447;28;19930;-74
2022/05/14 02:34:46;;;;;;;;;;;12.00;99.90;;;;;;4952099;28;19926;-73
2022/05/14 02:37:12;;;;;;;;;;;11.90;99.90;;;;;;4951367;28;19926;-73
2022/05/14 02:39:38;;;;;;;;;;;11.90;99.90;;;;;;4949254;28;19925;-73
2022/05/14 02:42:03;;;;;;;;;;;11.80;99.90;;;;;;4951450;28;19934;-74
2022/05/14 02:44:29;;;;;;;;;;;11.80;99.90;;;;;;4951603;28;20667;-73
2022/05/14 02:46:54;;;;;;;;;;;11.80;99.90;;;;;;4953359;28;20003;-73
2022/05/14 02:49:20;;;;;;;;;;;11.80;99.90;;;;;;4953605;28;20029;-73
2022/05/14 02:51:47;;;;;;;;;;;11.70;99.90;;;;;;4949193;28;20187;-74
2022/05/14 02:54:12;;;;;;;;;;;11.70;99.90;;;;;;4934717;28;20443;-74
2022/05/14 02:56:38;;;;;;;;;;;11.60;99.90;;;;;;4948309;28;19922;-73
2022/05/14 02:59:07;;;;;;;;;;;11.60;99.90;;;;;;4949861;28;19973;-73
2022/05/14 03:01:33;;;;;;;;;;;11.60;99.90;;;;;;4934419;28;20032;-73
2022/05/14 03:04:00;;;;;;;;;;;11.60;99.90;;;;;;4950614;28;20280;-74
2022/05/14 03:06:26;;;;;;;;;;;11.50;99.90;;;;;;4932683;28;19926;-73
2022/05/14 03:08:52;;;;;;;;;;;11.50;99.90;;;;;;4949741;28;19926;-74
2022/05/14 03:11:18;;;;;;;;;;;11.50;99.90;;;;;;4932330;28;19926;-74
2022/05/14 03:13:44;;;;;;;;;;;11.40;99.90;;;;;;4951035;28;19981;-73
2022/05/14 03:16:11;;;;;;;;;;;11.30;99.90;;;;;;4959001;28;19930;-73
2022/05/14 03:18:37;;;;;;;;;;;11.10;99.90;;;;;;4973304;28;20319;-74
2022/05/14 03:21:03;;;;;;;;;;;11.20;99.90;;;;;;4974955;28;19925;-73
2022/05/14 03:23:28;;;;;;;;;;;11.00;99.90;;;;;;4973683;28;19925;-73
2022/05/14 03:25:54;;;;;;;;;;;10.90;99.90;;;;;;4976822;28;20425;-75
2022/05/14 03:28:20;;;;;;;;;;;10.90;99.90;;;;;;4971777;28;20788;-73
2022/05/14 03:30:46;;;;;;;;;;;10.80;99.90;;;;;;4971681;28;19948;-73
2022/05/14 03:33:11;;;;;;;;;;;10.70;99.90;;;;;;4952233;28;20279;-73
2022/05/14 03:35:37;;;;;;;;;;;10.70;99.90;;;;;;4970660;28;20004;-74
2022/05/14 03:38:03;;;;;;;;;;;10.70;99.90;;;;;;4972992;28;19929;-74
2022/05/14 03:40:28;;;;;;;;;;;10.70;99.90;;;;;;4961755;28;20035;-73
2022/05/14 03:42:54;;;;;;;;;;;10.60;99.90;;;;;;4978188;28;20006;-74
2022/05/14 03:45:20;;;;;;;;;;;10.50;99.90;;;;;;4977549;28;19930;-74
2022/05/14 03:47:46;;;;;;;;;;;10.60;99.90;;;;;;4938245;28;19949;-74
2022/05/14 03:50:12;;;;;;;;;;;10.50;99.90;;;;;;4975764;28;19965;-74
2022/05/14 03:52:38;;;;;;;;;;;10.50;99.90;;;;;;4970539;28;20530;-74
2022/05/14 03:55:04;;;;;;;;;;;10.50;99.90;;;;;;4972004;28;20339;-74
2022/05/14 03:57:30;;;;;;;;;;;10.50;99.90;;;;;;4955045;28;19925;-73
2022/05/14 03:59:56;;;;;;;;;;;10.50;99.90;;;;;;4974008;28;20020;-74
2022/05/14 04:02:23;;;;;;;;;;;10.40;99.90;;;;;;4971074;28;20314;-74
2022/05/14 04:04:49;;;;;;;;;;;10.50;99.90;;;;;;4972314;28;20324;-74
2022/05/14 04:07:14;;;;;;;;;;;10.50;99.90;;;;;;4955087;28;19925;-74
2022/05/14 04:09:40;;;;;;;;;;;10.50;99.90;;;;;;4973147;28;20049;-74
2022/05/14 04:12:06;;;;;;;;;;;10.50;99.90;;;;;;4970953;28;20395;-74
2022/05/14 04:14:32;;;;;;;;;;;10.40;99.90;;;;;;4974890;28;19925;-74
2022/05/14 04:17:01;;;;;;;;;;;10.40;99.90;;;;;;4951737;28;20607;-74
2022/05/14 04:19:26;;;;;;;;;;;10.40;99.90;;;;;;4968607;28;20344;-74
2022/05/14 04:21:52;;;;;;;;;;;10.50;99.90;;;;;;4971523;28;19925;-74
2022/05/14 04:24:18;;;;;;;;;;;10.50;99.90;;;;;;4975160;28;19925;-74
2022/05/14 04:26:43;;;;;;;;;;;10.60;99.90;;;;;;4970664;28;19980;-74
2022/05/14 04:29:09;;;;;;;;;;;10.60;99.90;;;;;;4973251;28;19979;-74
2022/05/14 04:31:36;;;;;;;;;;;10.50;99.90;;;;;;4972566;28;19925;-73
2022/05/14 04:34:01;;;;;;;;;;;10.50;99.90;;;;;;4969568;28;20581;-74
2022/05/14 04:36:27;;;;;;;;;;;10.60;99.90;;;;;;4973849;28;19926;-74
2022/05/14 04:38:53;;;;;;;;;;;10.70;99.90;;;;;;4970739;28;19948;-74
2022/05/14 04:41:18;;;;;;;;;;;10.90;99.90;;;;;;4969532;28;20462;-75
2022/05/14 04:43:44;;;;;;;;;;;10.80;99.90;;;;;;4969124;28;19925;-74
2022/05/14 04:46:10;;;;;;;;;;;10.90;99.90;;;;;;4971200;28;19929;-74
2022/05/14 04:48:36;;;;;;;;;;;11.00;99.90;;;;;;4969377;28;19925;-73
2022/05/14 04:51:02;;;;;;;;;;;11.40;99.90;;;;;;4967715;28;19925;-74
2022/05/14 04:53:28;;;;;;;;;;;11.70;99.90;;;;;;4969418;28;20371;-74
2022/05/14 04:55:53;;;;;;;;;;;12.50;99.90;;;;;;4953809;28;19925;-73
2022/05/14 04:58:20;;;;;;;;;;;12.70;99.90;;;;;;4970413;28;20443;-74
2022/05/14 05:00:46;;;;;;;;;;;13.00;99.90;;;;;;4973877;28;20303;-74
2022/05/14 05:03:17;;;;;;;;;;;14.10;99.90;;;;;;4977702;28;19981;-74
2022/05/14 05:05:43;;;;;;;;;;;14.70;99.90;;;;;;4974702;28;19926;-74
2022/05/14 05:08:09;;;;;;;;;;;15.50;99.90;;;;;;4963278;28;20032;-74
2022/05/14 05:10:35;;;;;;;;;;;16.00;99.90;;;;;;4971697;28;19932;-74
2022/05/14 05:13:01;;;;;;;;;;;16.60;99.90;;;;;;4972777;28;19936;-74
2022/05/14 05:15:27;;;;;;;;;;;16.60;99.90;;;;;;4951744;28;19937;-74
2022/05/14 05:17:52;;;;;;;;;;;17.00;99.90;;;;;;4949229;28;20404;-74
2022/05/14 05:20:18;;;;;;;;;;;17.40;99.90;;;;;;4951095;28;19973;-74
2022/05/14 05:22:44;;;;;;;;;;;17.60;99.90;;;;;;4950291;28;19926;-74
2022/05/14 05:25:12;;;;;;;;;;;18.00;99.90;;;;;;4953322;28;19967;-74
2022/05/14 05:27:37;;;;;;;;;;;18.10;99.90;;;;;;4953638;28;20394;-74
2022/05/14 05:30:04;;;;;;;;;;;18.50;99.90;;;;;;4950445;28;19976;-74
2022/05/14 05:32:29;;;;;;;;;;;18.60;99.90;;;;;;4949824;28;20940;-74
2022/05/14 05:34:55;;;;;;;;;;;18.60;99.90;;;;;;4936796;28;19925;-74
2022/05/14 05:37:21;;;;;;;;;;;19.00;99.90;;;;;;4952804;28;19925;-73
2022/05/14 05:39:46;;;;;;;;;;;19.10;99.90;;;;;;4952575;28;20020;-73
2022/05/14 05:42:12;;;;;;;;;;;19.20;99.90;;;;;;4950378;28;19933;-73
2022/05/14 05:44:38;;;;;;;;;;;18.80;99.90;;;;;;4949079;28;19933;-73
2022/05/14 05:47:06;;;;;;;;;;;17.30;99.90;;;;;;4947617;28;19930;-74
2022/05/14 05:49:38;;;;;;;;;;;17.10;99.90;;;;;;4949284;28;19937;-73
2022/05/14 05:52:04;;;;;;;;;;;16.60;99.90;;;;;;4936693;28;20380;-73
2022/05/14 05:57:14;;;;;;;;;;;16.50;99.90;;;;;;4953587;28;20304;-74
2022/05/14 05:59:40;;;;;;;;;;;16.30;99.90;;;;;;4950000;28;19937;-74
2022/05/14 06:02:06;;;;;;;;;;;16.30;99.90;;;;;;4948811;28;20304;-74
2022/05/14 06:04:32;;;;;;;;;;;16.00;99.90;;;;;;4949871;28;20938;-73
2022/05/14 06:06:57;;;;;;;;;;;16.00;99.90;;;;;;4951617;28;20438;-74
2022/05/14 06:09:29;;;;;;;;;;;15.70;99.90;;;;;;4954854;28;20756;-74
2022/05/14 06:11:56;;;;;;;;;;;15.50;99.90;;;;;;4952716;28;19980;-74
2022/05/14 06:14:22;;;;;;;;;;;15.70;99.90;;;;;;4949207;28;20021;-74
2022/05/14 06:16:48;;;;;;;;;;;15.70;99.90;;;;;;4951474;28;19947;-74
2022/05/14 06:19:14;;;;;;;;;;;15.80;99.90;;;;;;4957508;28;19957;-74
2022/05/14 06:21:40;;;;;;;;;;;15.90;99.90;;;;;;4966405;28;19932;-74
2022/05/14 06:24:06;;;;;;;;;;;16.10;99.90;;;;;;4955909;28;19925;-74
2022/05/14 06:26:32;;;;;;;;;;;15.80;99.90;;;;;;4969693;28;19925;-74
2022/05/14 06:28:59;;;;;;;;;;;15.50;99.90;;;;;;4974657;28;20405;-73
2022/05/14 06:31:25;;;;;;;;;;;15.50;99.90;;;;;;4973336;28;19969;-74
2022/05/14 06:33:51;;;;;;;;;;;15.90;99.90;;;;;;4971257;28;19929;-74
2022/05/14 06:36:16;;;;;;;;;;;16.10;99.90;;;;;;4968223;28;19933;-74
2022/05/14 06:38:42;;;;;;;;;;;16.30;99.90;;;;;;4954476;28;19953;-74
2022/05/14 06:41:14;;;;;;;;;;;16.50;99.90;;;;;;4972275;28;20028;-74
2022/05/14 06:43:40;;;;;;;;;;;16.50;99.90;;;;;;4972804;28;19925;-74
2022/05/14 06:46:21;;;;;;;;;;;16.80;99.90;;;;;;4970733;28;19925;-75
2022/05/14 06:48:47;;;;;;;;;;;17.10;99.90;;;;;;4951625;28;19925;-74
2022/05/14 06:51:18;;;;;;;;;;;17.20;99.90;;;;;;4970129;28;19937;-74
2022/05/14 06:53:44;;;;;;;;;;;17.50;99.90;;;;;;4961101;28;19930;-75
2022/05/14 06:56:12;;;;;;;;;;;17.80;99.90;;;;;;4961612;28;19929;-74
2022/05/14 06:58:38;;;;;;;;;;;17.80;99.90;;;;;;4943065;28;20016;-75
2022/05/14 07:01:05;;;;;;;;;;;18.10;99.90;;;;;;4970229;28;20350;-74
2022/05/14 07:09:23;;;;;;;;;;;18.40;99.90;;;;;;4935075;28;20911;-74
2022/05/14 07:11:50;;;;;;;;;;;18.50;99.90;;;;;;4973519;28;19975;-74
2022/05/14 07:14:17;;;;;;;;;;;18.70;99.90;;;;;;4980122;28;19932;-75
2022/05/14 07:16:43;;;;;;;;;;;18.80;99.90;;;;;;4974180;28;19925;-75
2022/05/14 07:19:09;;;;;;;;;;;18.80;99.90;;;;;;4977434;28;19953;-75
2022/05/14 07:21:36;;;;;;;;;;;18.90;99.90;;;;;;4951555;28;19925;-75
2022/05/14 07:24:04;;;;;;;;;;;18.90;99.90;;;;;;4970763;28;19925;-75
2022/05/14 07:26:30;;;;;;;;;;;19.20;99.90;;;;;;4977393;28;19925;-75
2022/05/14 07:28:55;;;;;;;;;;;19.40;99.90;;;;;;4942763;28;20743;-75
2022/05/14 07:31:21;;;;;;;;;;;19.60;99.90;;;;;;4976982;28;19945;-74
2022/05/14 07:33:47;;;;;;;;;;;19.60;99.90;;;;;;4979231;28;20679;-74
2022/05/14 07:36:17;;;;;;;;;;;19.70;99.90;;;;;;4979451;28;19925;-74
2022/05/14 07:38:43;;;;;;;;;;;19.60;99.90;;;;;;4977656;28;20046;-75
2022/05/14 07:41:11;;;;;;;;;;;19.90;99.90;;;;;;4975759;28;19932;-76
2022/05/14 07:43:37;;;;;;;;;;;19.80;99.90;;;;;;4965562;28;20291;-75
2022/05/14 07:46:06;;;;;;;;;;;19.90;99.90;;;;;;4967332;28;20359;-76
2022/05/14 07:48:33;;;;;;;;;;;19.80;99.90;;;;;;4975231;28;19930;-75
2022/05/14 07:51:00;;;;;;;;;;;19.90;99.90;;;;;;4985034;28;19956;-75
2022/05/14 07:53:30;;;;;;;;;;;19.60;99.90;;;;;;4973122;28;19934;-75
2022/05/14 07:55:56;;;;;;;;;;;19.90;99.90;;;;;;4972284;28;19925;-75
2022/05/14 07:58:24;;;;;;;;;;;20.10;99.90;;;;;;4976565;28;19925;-75
2022/05/14 08:00:49;;;;;;;;;;;20.20;99.90;;;;;;4955768;28;19929;-76
2022/05/14 08:03:16;;;;;;;;;;;20.20;99.90;;;;;;4969734;28;19930;-75
2022/05/14 08:05:41;;;;;;;;;;;20.00;99.90;;;;;;4968354;28;20497;-75
2022/05/14 08:08:08;;;;;;;;;;;20.10;99.90;;;;;;4970973;28;20357;-76
2022/05/14 08:10:34;;;;;;;;;;;19.50;97.20;;;;;;4958178;28;19925;-75
2022/05/14 08:13:00;;;;;;;;;;;20.00;99.90;;;;;;4964021;28;19933;-75
2022/05/14 08:15:26;;;;;;;;;;;20.20;99.90;;;;;;4976960;28;20656;-75
2022/05/14 08:17:52;;;;;;;;;;;20.30;99.90;;;;;;4971519;28;19926;-75
2022/05/14 08:20:18;;;;;;;;;;;20.50;99.90;;;;;;4956960;28;19925;-75
2022/05/14 08:25:29;;;;;;;;;;;20.80;98.00;;;;;;4960441;28;20016;-75
2022/05/14 08:27:55;;;;;;;;;;;21.00;98.90;;;;;;4970609;28;19932;-75
2022/05/14 08:30:22;;;;;;;;;;;21.20;99.90;;;;;;4971851;28;20028;-75
2022/05/14 08:32:48;;;;;;;;;;;21.30;98.00;;;;;;4971342;28;19942;-75
2022/05/14 08:35:14;;;;;;;;;;;21.40;98.80;;;;;;4973779;28;19983;-75
2022/05/14 08:37:40;;;;;;;;;;;21.70;99.40;;;;;;4965144;28;19925;-76
2022/05/14 08:40:07;;;;;;;;;;;21.50;93.70;;;;;;4970290;28;19984;-75
2022/05/14 08:42:33;;;;;;;;;;;21.80;99.80;;;;;;4971922;28;20405;-76
2022/05/14 08:44:59;;;;;;;;;;;21.20;94.20;;;;;;4971093;28;19932;-75
2022/05/14 08:47:30;;;;;;;;;;;21.10;93.40;;;;;;4966104;28;19945;-75
2022/05/14 08:49:56;;;;;;;;;;;21.20;94.80;;;;;;4957346;28;20068;-75
2022/05/14 08:52:23;;;;;;;;;;;21.50;91.00;;;;;;4953012;28;19929;-76
2022/05/14 08:54:57;;;;;;;;;;;21.00;85.90;;;;;;4966232;28;19925;-75
2022/05/14 08:57:34;;;;;;;;;;;21.10;94.70;;;;;;4970574;28;19961;-74
2022/05/14 09:00:01;;;;;;;;;;;21.70;94.60;;;;;;4973096;28;19936;-77
2022/05/14 09:02:32;;;;;;;;;;;21.40;90.80;;;;;;4969266;28;19926;-76
2022/05/14 09:05:00;;;;;;;;;;;20.60;86.30;;;;;;4973990;28;19925;-75
2022/05/14 09:07:25;;;;;;;;;;;20.90;93.50;;;;;;4968477;28;19926;-75
2022/05/14 09:09:52;;;;;;;;;;;21.60;95.70;;;;;;4972471;28;19931;-76
2022/05/14 09:12:20;;;;;;;;;;;21.90;92.40;;;;;;4973950;28;19926;-76
2022/05/14 09:14:51;;;;;;;;;;;22.00;90.30;;;;;;4956422;28;19933;-74
2022/05/14 09:17:21;;;;;;;;;;;22.10;87.60;;;;;;4970108;28;20006;-75
2022/05/14 09:19:52;;;;;;;;;;;22.50;88.50;;;;;;4967304;28;20060;-76
2022/05/14 09:22:26;;;;;;;;;;;21.60;72.90;;;;;;4967021;28;20429;-74
2022/05/14 09:24:53;;;;;;;;;;;22.50;89.90;;;;;;4968790;28;19932;-75
2022/05/14 09:27:22;;;;;;;;;;;22.60;81.60;;;;;;4970393;28;19926;-75
2022/05/14 09:29:50;;;;;;;;;;;22.30;83.00;;;;;;4954380;28;19926;-76
2022/05/14 09:32:16;;;;;;;;;;;21.50;73.40;;;;;;4969127;28;20028;-75
2022/05/14 09:34:42;;;;;;;;;;;22.10;90.20;;;;;;4955715;28;19932;-75
2022/05/14 09:37:12;;;;;;;;;;;22.60;85.80;;;;;;4968370;28;19926;-75
2022/05/14 09:39:38;;;;;;;;;;;22.30;91.00;;;;;;4968547;28;19992;-75
2022/05/14 09:42:04;;;;;;;;;;;22.20;81.00;;;;;;4969717;28;20560;-76
2022/05/14 09:44:30;;;;;;;;;;;21.30;77.80;;;;;;4933864;28;19930;-76
2022/05/14 09:47:05;;;;;;;;;;;21.30;78.50;;;;;;4968750;28;20455;-75
2022/05/14 09:49:31;;;;;;;;;;;21.40;93.80;;;;;;4963364;28;20724;-77
2022/05/14 09:52:02;;;;;;;;;;;21.10;90.20;;;;;;4965304;28;20379;-76
2022/05/14 09:54:45;;;;;;;;;;;20.70;91.90;;;;;;4967022;28;20683;-75
2022/05/14 09:57:30;;;;;;;;;;;20.40;91.70;;;;;;4965068;28;19929;-75
2022/05/14 10:00:01;;;;;;;;;;;20.60;95.00;;;;;;4966883;28;19930;-74
2022/05/14 10:02:54;;;;;;;;;;;20.40;97.20;;;;;;4965669;28;20473;-75
2022/05/14 10:05:38;;;;;;;;;;;20.40;94.50;;;;;;4938298;28;19929;-75
2022/05/14 10:08:10;;;;;;;;;;;20.20;93.40;;;;;;4964570;28;20415;-74
2022/05/14 10:10:39;;;;;;;;;;;20.00;93.30;;;;;;4963183;28;20020;-75
2022/05/14 10:13:13;;;;;;;;;;;20.00;94.00;;;;;;4966083;28;19926;-76
2022/05/14 10:15:46;;;;;;;;;;;20.60;97.00;;;;;;4951029;28;19936;-77
2022/05/14 10:18:22;;;;;;;;;;;20.70;94.20;;;;;;4966261;28;20033;-75
2022/05/14 10:20:51;;;;;;;;;;;20.50;95.00;;;;;;4967198;28;19925;-75
2022/05/14 10:29:24;;;;;;;;;;;21.20;94.30;;;;;;4953519;28;20857;-75
2022/05/14 10:31:59;;;;;;;;;;;21.00;92.10;;;;;;4972234;28;19933;-76
2022/05/14 10:34:45;;;;;;;;;;;21.00;81.60;;;;;;4974417;28;19932;-75
2022/05/14 10:37:31;;;;;;;;;;;21.90;88.70;;;;;;4936803;28;19925;-75
2022/05/14 10:40:16;;;;;;;;;;;22.40;84.00;;;;;;4968442;28;19926;-75
2022/05/14 10:42:59;;;;;;;;;;;21.70;80.00;;;;;;4978045;28;19926;-76
2022/05/14 10:45:31;;;;;;;;;;;21.30;83.70;;;;;;4973931;28;20005;-75
2022/05/14 10:48:00;;;;;;;;;;;22.30;90.00;;;;;;4955567;28;20753;-76
2022/05/14 10:50:29;;;;;;;;;;;22.70;75.20;;;;;;4957381;28;19938;-75
2022/05/14 10:52:55;;;;;;;;;;;22.60;78.70;;;;;;4938715;28;19930;-75
2022/05/14 10:55:26;;;;;;;;;;;22.10;72.20;;;;;;4955165;28;20280;-76
2022/05/14 10:57:57;;;;;;;;;;;21.90;73.30;;;;;;4940304;28;19932;-76
2022/05/14 11:00:32;;;;;;;;;;;22.80;77.20;;;;;;4957807;28;20032;-76
2022/05/14 11:02:58;;;;;;;;;;;23.30;78.10;;;;;;4960661;28;19930;-79
2022/05/14 11:05:30;;;;;;;;;;;23.60;82.10;;;;;;4939960;28;19971;-76
2022/05/14 11:08:06;;;;;;;;;;;24.00;77.70;;;;;;4966824;28;20338;-76
2022/05/14 11:10:34;;;;;;;;;;;24.20;71.50;;;;;;4972702;28;20489;-77
2022/05/14 11:13:29;;;;;;;;;;;24.10;67.40;;;;;;4969744;28;19925;-75
2022/05/14 11:16:03;;;;;;;;;;;23.20;73.10;;;;;;4949704;28;19995;-77
2022/05/14 11:18:29;;;;;;;;;;;23.30;73.00;;;;;;4951719;28;19957;-77
2022/05/14 11:20:57;;;;;;;;;;;22.90;76.00;;;;;;4952482;28;20351;-77
2022/05/14 11:23:23;;;;;;;;;;;22.70;73.00;;;;;;4935945;28;19988;-77
2022/05/14 11:26:02;;;;;;;;;;;22.40;73.30;;;;;;4939744;28;19937;-77
2022/05/14 11:28:30;;;;;;;;;;;22.00;76.60;;;;;;4956969;28;19930;-77
2022/05/14 11:31:08;;;;;;;;;;;22.10;77.00;;;;;;4953574;28;19947;-77
2022/05/14 11:33:34;;;;;;;;;;;21.90;77.60;;;;;;4952311;28;19925;-77
2022/05/14 11:36:12;;;;;;;;;;;21.70;84.50;;;;;;4952317;28;21305;-76
2022/05/14 11:38:39;;;;;;;;;;;20.80;78.80;;;;;;4950817;28;19926;-77
2022/05/14 11:41:07;;;;;;;;;;;21.10;91.50;;;;;;4954331;28;19925;-77
2022/05/14 11:43:37;;;;;;;;;;;21.00;91.30;;;;;;4939352;28;21001;-77
2022/05/14 11:46:09;;;;;;;;;;;21.40;87.80;;;;;;4950884;28;19926;-76
2022/05/14 11:48:54;;;;;;;;;;;22.20;91.50;;;;;;4952687;28;20303;-76
2022/05/14 11:51:56;;;;;;;;;;;23.10;81.40;;;;;;4936099;28;21288;-76
2022/05/14 11:54:26;;;;;;;;;;;23.50;75.30;;;;;;4890600;29;20045;-76
2022/05/14 11:56:55;;;;;;;;;;;23.60;70.40;;;;;;4942631;28;19929;-76
2022/05/14 11:59:20;;;;;;;;;;;23.80;67.10;;;;;;4954414;28;20068;-76
2022/05/14 12:01:47;;;;;;;;;;;24.20;69.70;;;;;;4949063;28;20176;-77
2022/05/14 12:04:22;;;;;;;;;;;24.50;70.10;;;;;;4949618;28;19937;-77
2022/05/14 12:06:55;;;;;;;;;;;25.10;62.00;;;;;;4927207;28;20451;-76
2022/05/14 12:09:52;;;;;;;;;;;24.90;64.40;;;;;;4935022;28;19929;-76
2022/05/14 12:12:25;;;;;;;;;;;24.20;62.10;;;;;;4892676;28;19926;-76
2022/05/14 12:14:50;;;;;;;;;;;23.70;64.10;;;;;;4934582;28;19929;-76
2022/05/14 12:17:18;;;;;;;;;;;24.20;65.40;;;;;;4935134;28;20725;-78
2022/05/14 12:19:45;;;;;;;;;;;23.70;63.70;;;;;;4957583;28;19926;-76
2022/05/14 12:22:14;;;;;;;;;;;23.10;64.90;;;;;;4940478;28;20008;-76
2022/05/14 12:24:40;;;;;;;;;;;22.70;67.70;;;;;;4957396;28;19948;-76
2022/05/14 12:27:16;;;;;;;;;;;22.30;66.00;;;;;;4956899;28;20391;-77
2022/05/14 12:29:51;;;;;;;;;;;22.20;71.00;;;;;;4958985;28;19931;-77
2022/05/14 12:35:28;;;;;;;;;;;21.80;70.20;;;;;;4954243;28;20044;-76
2022/05/14 12:37:55;;;;;;;;;;;22.20;70.50;;;;;;4958115;28;20524;-76
2022/05/14 12:40:23;;;;;;;;;;;23.30;72.00;;;;;;4957388;28;19930;-76
2022/05/14 12:42:50;;;;;;;;;;;24.20;69.00;;;;;;4958981;28;19929;-76
2022/05/14 12:45:16;;;;;;;;;;;24.60;68.50;;;;;;4938826;28;20071;-76
2022/05/14 12:47:42;;;;;;;;;;;23.80;62.40;;;;;;4958370;28;19925;-77
2022/05/14 12:50:34;;;;;;;;;;;23.60;65.90;;;;;;4959715;28;19925;-77
2022/05/14 12:53:02;;;;;;;;;;;23.20;64.80;;;;;;4952950;28;20445;-77
2022/05/14 12:55:28;;;;;;;;;;;22.90;67.40;;;;;;4959431;28;19932;-78
2022/05/14 12:57:55;;;;;;;;;;;22.40;67.20;;;;;;4956876;28;19967;-77
2022/05/14 13:00:21;;;;;;;;;;;22.30;68.70;;;;;;4954442;28;19981;-77
2022/05/14 13:02:53;;;;;;;;;;;22.40;70.40;;;;;;4957992;28;20768;-77
2022/05/14 13:05:46;;;;;;;;;;;22.50;71.50;;;;;;4948573;28;19925;-77
2022/05/14 13:08:14;;;;;;;;;;;22.20;66.90;;;;;;4964419;28;20040;-77
2022/05/14 13:10:45;;;;;;;;;;;22.40;70.50;;;;;;4954566;28;19991;-76
2022/05/14 13:13:11;;;;;;;;;;;22.10;70.10;;;;;;4941584;28;19980;-78
2022/05/14 13:15:45;;;;;;;;;;;22.20;67.90;;;;;;4959814;28;20437;-77
2022/05/14 13:18:15;;;;;;;;;;;22.10;67.10;;;;;;4949200;28;19930;-77
2022/05/14 13:20:41;;;;;;;;;;;21.80;69.20;;;;;;4968967;28;19925;-77
2022/05/14 13:23:16;;;;;;;;;;;22.20;64.80;;;;;;4971122;28;19929;-77
2022/05/14 13:25:42;;;;;;;;;;;22.10;64.60;;;;;;4967672;28;20457;-76
2022/05/14 13:28:10;;;;;;;;;;;22.30;66.80;;;;;;4965434;28;20029;-77
2022/05/14 13:30:36;;;;;;;;;;;22.20;67.60;;;;;;4939253;28;20761;-77
2022/05/14 13:33:31;;;;;;;;;;;22.30;70.50;;;;;;4954223;28;19932;-78
2022/05/14 13:38:46;;;;;;;;;;;21.80;69.10;;;;;;4953146;28;19933;-80
2022/05/14 13:41:19;;;;;;;;;;;21.40;64.00;;;;;;4951282;28;20505;-77
2022/05/14 13:43:48;;;;;;;;;;;21.90;70.80;;;;;;4954144;28;19933;-77
2022/05/14 13:46:19;;;;;;;;;;;22.20;70.70;;;;;;4955597;28;20040;-77
2022/05/14 13:48:46;;;;;;;;;;;22.30;73.20;;;;;;4951983;28;19926;-77
2022/05/14 13:51:18;;;;;;;;;;;22.40;70.30;;;;;;4956667;28;19926;-77
2022/05/14 13:53:45;;;;;;;;;;;22.40;67.30;;;;;;4959330;28;19937;-77
2022/05/14 13:56:28;;;;;;;;;;;22.40;68.10;;;;;;4953983;28;19929;-78
2022/05/14 13:59:02;;;;;;;;;;;21.50;63.20;;;;;;4959266;28;19930;-76
2022/05/14 14:01:47;;;;;;;;;;;21.90;68.70;;;;;;4955869;28;19926;-77
2022/05/14 14:04:15;;;;;;;;;;;22.40;69.30;;;;;;4956582;28;19930;-77
2022/05/14 14:06:41;;;;;;;;;;;22.60;68.30;;;;;;4925003;28;19976;-77
2022/05/14 14:09:07;;;;;;;;;;;22.40;68.60;;;;;;4955326;28;19933;-77
2022/05/14 14:11:33;;;;;;;;;;;22.10;69.60;;;;;;4959107;28;19932;-77
2022/05/14 14:13:59;;;;;;;;;;;22.20;70.00;;;;;;4955624;28;19929;-77
2022/05/14 14:16:24;;;;;;;;;;;22.00;68.10;;;;;;4954906;28;20751;-77
2022/05/14 14:18:50;;;;;;;;;;;22.20;71.50;;;;;;4941058;28;20019;-77
2022/05/14 14:21:16;;;;;;;;;;;22.20;71.70;;;;;;4960601;28;19926;-77
2022/05/14 14:23:44;;;;;;;;;;;22.30;70.80;;;;;;4958997;28;20752;-78
2022/05/14 14:26:10;;;;;;;;;;;21.90;65.90;;;;;;4952294;28;19930;-78
2022/05/14 14:28:36;;;;;;;;;;;21.80;64.40;;;;;;4968433;28;20496;-77
2022/05/14 14:31:03;;;;;;;;;;;21.70;66.80;;;;;;4966994;28;20012;-77
2022/05/14 14:33:30;;;;;;;;;;;21.50;65.30;;;;;;4970746;28;19969;-78
2022/05/14 14:35:56;;;;;;;;;;;21.70;66.40;;;;;;4949981;28;19933;-77
2022/05/14 14:38:23;;;;;;;;;;;22.20;67.40;;;;;;4970712;28;19980;-76
2022/05/14 14:40:48;;;;;;;;;;;22.10;66.20;;;;;;4969052;28;19925;-76
2022/05/14 14:43:14;;;;;;;;;;;22.20;67.90;;;;;;4973758;28;20445;-77
2022/05/14 14:45:40;;;;;;;;;;;21.90;65.40;;;;;;4971677;28;19925;-78
2022/05/14 14:48:06;;;;;;;;;;;21.50;64.20;;;;;;4969837;28;20684;-78
2022/05/14 14:50:32;;;;;;;;;;;21.80;66.40;;;;;;4968981;28;19948;-77
2022/05/14 14:52:58;;;;;;;;;;;22.00;70.20;;;;;;4967176;28;19960;-77